sensor_id;sensor_type;location;lat;lon;timestamp;pressure;altitude;pressure_sealevel;temperature;humidity
23164;BME280;31429;42.674;23.350;2022-07-23T00:00:23;95034.66;;;20.76;100.00
23164;BME280;31429;42.674;23.350;2022-07-23T00:01:23;95019.94;;;20.63;100.00
23164;BME280;31429;42.674;23.350;2022-07-23T00:02:24;95038.44;;;20.72;100.00
23164;BME280;31429;42.674;23.350;2022-07-23T00:03:24;95037.47;;;20.73;100.00
23164;BME280;31429;42.674;23.350;2022-07-23T00:04:27;95044.97;;;20.77;100.00
23164;BME280;31429;42.674;23.350;2022-07-23T00:05:27;95042.22;;;20.79;100.00
23164;BME280;31429;42.674;23.350;2022-07-23T00:06:28;95039.25;;;20.72;100.00
23164;BME280;31429;42.674;23.350;2022-07-23T00:07:29;95041.84;;;20.72;100.00
23164;BME280;31429;42.674;23.350;2022-07-23T00:08:29;95025.28;;;20.62;100.00
23164;BME280;31429;42.674;23.350;2022-07-23T00:09:30;95046.81;;;20.75;100.00
23164;BME280;31429;42.674;23.350;2022-07-23T00:10:32;95013.88;;;20.52;100.00
23164;BME280;31429;42.674;23.350;2022-07-23T00:11:32;95026.31;;;20.59;100.00
23164;BME280;31429;42.674;23.350;2022-07-23T00:12:33;95038.31;;;20.73;100.00
23164;BME280;31429;42.674;23.350;2022-07-23T00:13:34;95043.50;;;20.73;100.00
23164;BME280;31429;42.674;23.350;2022-07-23T00:14:35;95044.13;;;20.77;100.00
23164;BME280;31429;42.674;23.350;2022-07-23T00:15:36;95044.81;;;20.79;100.00
23164;BME280;31429;42.674;23.350;2022-07-23T00:16:36;95053.47;;;20.79;100.00
23164;BME280;31429;42.674;23.350;2022-07-23T00:17:37;95048.13;;;20.81;100.00
23164;BME280;31429;42.674;23.350;2022-07-23T00:18:38;95047.81;;;20.85;100.00
23164;BME280;31429;42.674;23.350;2022-07-23T00:19:40;95046.16;;;20.84;100.00
23164;BME280;31429;42.674;23.350;2022-07-23T00:20:40;95054.28;;;20.80;100.00
23164;BME280;31429;42.674;23.350;2022-07-23T00:21:41;95044.75;;;20.80;100.00
23164;BME280;31429;42.674;23.350;2022-07-23T00:22:46;95055.34;;;20.77;100.00
23164;BME280;31429;42.674;23.350;2022-07-23T00:23:47;95050.47;;;20.73;100.00
23164;BME280;31429;42.674;23.350;2022-07-23T00:24:47;95052.97;;;20.74;100.00
23164;BME280;31429;42.674;23.350;2022-07-23T00:25:48;95039.81;;;20.64;100.00
23164;BME280;31429;42.674;23.350;2022-07-23T00:26:49;95054.75;;;20.74;100.00
23164;BME280;31429;42.674;23.350;2022-07-23T00:27:49;95057.34;;;20.74;100.00
23164;BME280;31429;42.674;23.350;2022-07-23T00:28:50;95057.81;;;20.79;100.00
23164;BME280;31429;42.674;23.350;2022-07-23T00:29:50;95018.63;;;20.58;100.00
23164;BME280;31429;42.674;23.350;2022-07-23T00:30:51;95056.53;;;20.84;100.00
23164;BME280;31429;42.674;23.350;2022-07-23T00:31:52;95055.19;;;20.91;100.00
23164;BME280;31429;42.674;23.350;2022-07-23T00:32:55;95029.13;;;20.80;100.00
23164;BME280;31429;42.674;23.350;2022-07-23T00:33:57;95004.50;;;20.62;100.00
23164;BME280;31429;42.674;23.350;2022-07-23T00:34:59;95056.50;;;20.97;100.00
23164;BME280;31429;42.674;23.350;2022-07-23T00:36:00;95039.66;;;20.90;100.00
23164;BME280;31429;42.674;23.350;2022-07-23T00:37:00;95061.94;;;21.05;100.00
23164;BME280;31429;42.674;23.350;2022-07-23T00:38:02;95060.56;;;21.12;100.00
23164;BME280;31429;42.674;23.350;2022-07-23T00:39:03;95058.75;;;21.25;100.00
23164;BME280;31429;42.674;23.350;2022-07-23T00:40:05;95056.72;;;21.29;100.00
23164;BME280;31429;42.674;23.350;2022-07-23T00:41:06;95036.88;;;21.28;98.24
23164;BME280;31429;42.674;23.350;2022-07-23T00:42:06;95054.41;;;21.48;96.75
23164;BME280;31429;42.674;23.350;2022-07-23T00:43:07;95054.88;;;21.53;93.10
23164;BME280;31429;42.674;23.350;2022-07-23T00:44:15;95053.72;;;21.68;92.05
23164;BME280;31429;42.674;23.350;2022-07-23T00:45:16;95059.19;;;21.76;87.85
23164;BME280;31429;42.674;23.350;2022-07-23T00:46:19;95049.94;;;21.83;89.22
23164;BME280;31429;42.674;23.350;2022-07-23T00:47:20;95053.59;;;21.81;89.07
23164;BME280;31429;42.674;23.350;2022-07-23T00:48:20;95058.09;;;21.78;89.03
23164;BME280;31429;42.674;23.350;2022-07-23T00:49:22;95039.16;;;21.65;89.27
23164;BME280;31429;42.674;23.350;2022-07-23T00:50:24;95059.22;;;21.87;89.13
23164;BME280;31429;42.674;23.350;2022-07-23T00:51:25;95057.06;;;21.92;86.94
23164;BME280;31429;42.674;23.350;2022-07-23T00:52:26;95060.94;;;21.87;87.82
23164;BME280;31429;42.674;23.350;2022-07-23T00:53:26;95054.06;;;21.86;87.77
23164;BME280;31429;42.674;23.350;2022-07-23T00:54:27;95062.84;;;21.85;88.95
23164;BME280;31429;42.674;23.350;2022-07-23T00:55:28;95054.56;;;21.80;87.26
23164;BME280;31429;42.674;23.350;2022-07-23T00:56:29;95027.72;;;21.68;87.81
23164;BME280;31429;42.674;23.350;2022-07-23T00:57:30;95056.34;;;21.79;88.29
23164;BME280;31429;42.674;23.350;2022-07-23T00:58:33;95055.59;;;21.77;87.85
23164;BME280;31429;42.674;23.350;2022-07-23T00:59:35;95056.34;;;21.79;88.79
23164;BME280;31429;42.674;23.350;2022-07-23T01:00:36;95056.34;;;21.79;90.26
23164;BME280;31429;42.674;23.350;2022-07-23T01:01:37;95055.03;;;21.73;89.18
23164;BME280;31429;42.674;23.350;2022-07-23T01:02:38;95058.44;;;21.74;89.73
23164;BME280;31429;42.674;23.350;2022-07-23T01:03:38;95051.69;;;21.71;91.76
23164;BME280;31429;42.674;23.350;2022-07-23T01:04:39;95044.03;;;21.70;91.03
23164;BME280;31429;42.674;23.350;2022-07-23T01:05:41;95047.78;;;21.77;89.46
23164;BME280;31429;42.674;23.350;2022-07-23T01:06:43;95051.94;;;21.68;90.33
23164;BME280;31429;42.674;23.350;2022-07-23T01:07:44;95047.47;;;21.70;91.42
23164;BME280;31429;42.674;23.350;2022-07-23T01:08:46;95045.78;;;21.69;90.24
23164;BME280;31429;42.674;23.350;2022-07-23T01:09:46;95043.88;;;21.71;90.38
23164;BME280;31429;42.674;23.350;2022-07-23T01:10:48;95024.13;;;21.58;91.08
23164;BME280;31429;42.674;23.350;2022-07-23T01:11:50;95050.16;;;21.69;92.88
23164;BME280;31429;42.674;23.350;2022-07-23T01:12:51;95045.09;;;21.67;92.24
23164;BME280;31429;42.674;23.350;2022-07-23T01:13:52;95043.66;;;21.63;91.33
23164;BME280;31429;42.674;23.350;2022-07-23T01:14:54;95050.41;;;21.66;91.43
23164;BME280;31429;42.674;23.350;2022-07-23T01:15:55;95058.09;;;21.67;91.63
23164;BME280;31429;42.674;23.350;2022-07-23T01:16:56;95045.78;;;21.69;92.27
23164;BME280;31429;42.674;23.350;2022-07-23T01:17:57;95045.19;;;21.66;92.35
23164;BME280;31429;42.674;23.350;2022-07-23T01:18:57;95021.28;;;21.50;93.04
23164;BME280;31429;42.674;23.350;2022-07-23T01:19:58;95043.66;;;21.63;93.31
23164;BME280;31429;42.674;23.350;2022-07-23T01:21:00;95016.56;;;21.44;95.34
23164;BME280;31429;42.674;23.350;2022-07-23T01:22:03;95039.88;;;21.56;94.97
23164;BME280;31429;42.674;23.350;2022-07-23T01:23:05;95044.72;;;21.50;98.07
23164;BME280;31429;42.674;23.350;2022-07-23T01:24:06;95041.03;;;21.41;99.69
23164;BME280;31429;42.674;23.350;2022-07-23T01:25:08;95044.09;;;21.35;99.45
23164;BME280;31429;42.674;23.350;2022-07-23T01:26:09;95033.66;;;21.24;100.00
23164;BME280;31429;42.674;23.350;2022-07-23T01:27:10;95021.25;;;21.16;100.00
23164;BME280;31429;42.674;23.350;2022-07-23T01:28:11;95038.78;;;21.26;100.00
23164;BME280;31429;42.674;23.350;2022-07-23T01:29:12;95041.09;;;21.17;100.00
23164;BME280;31429;42.674;23.350;2022-07-23T01:30:14;95041.44;;;21.13;100.00
23164;BME280;31429;42.674;23.350;2022-07-23T01:31:15;95042.78;;;21.06;100.00
23164;BME280;31429;42.674;23.350;2022-07-23T01:32:15;95018.41;;;20.85;100.00
23164;BME280;31429;42.674;23.350;2022-07-23T01:33:16;95038.63;;;20.92;100.00
23164;BME280;31429;42.674;23.350;2022-07-23T01:34:17;95035.66;;;20.86;100.00
23164;BME280;31429;42.674;23.350;2022-07-23T01:35:17;95034.66;;;20.76;100.00
23164;BME280;31429;42.674;23.350;2022-07-23T01:36:18;95035.00;;;20.71;100.00
23164;BME280;31429;42.674;23.350;2022-07-23T01:37:19;95030.75;;;20.70;100.00
23164;BME280;31429;42.674;23.350;2022-07-23T01:38:21;95034.16;;;20.71;100.00
23164;BME280;31429;42.674;23.350;2022-07-23T01:39:22;95014.63;;;20.54;100.00
23164;BME280;31429;42.674;23.350;2022-07-23T01:40:22;95029.84;;;20.58;100.00
23164;BME280;31429;42.674;23.350;2022-07-23T01:41:23;95013.28;;;20.48;100.00
23164;BME280;31429;42.674;23.350;2022-07-23T01:42:24;95027.38;;;20.57;100.00
23164;BME280;31429;42.674;23.350;2022-07-23T01:43:25;95034.22;;;20.58;100.00
23164;BME280;31429;42.674;23.350;2022-07-23T01:44:26;95029.97;;;20.57;100.00
23164;BME280;31429;42.674;23.350;2022-07-23T01:45:34;95036.22;;;20.54;100.00
23164;BME280;31429;42.674;23.350;2022-07-23T01:46:35;95031.56;;;20.47;100.00
23164;BME280;31429;42.674;23.350;2022-07-23T01:47:36;95033.78;;;20.40;100.00
23164;BME280;31429;42.674;23.350;2022-07-23T01:48:36;95038.88;;;20.42;100.00
23164;BME280;31429;42.674;23.350;2022-07-23T01:49:37;95039.91;;;20.39;100.00
23164;BME280;31429;42.674;23.350;2022-07-23T01:50:38;95035.56;;;20.40;100.00
23164;BME280;31429;42.674;23.350;2022-07-23T01:51:38;95032.97;;;20.40;100.00
23164;BME280;31429;42.674;23.350;2022-07-23T01:52:59;95039.41;;;20.34;100.00
23164;BME280;31429;42.674;23.350;2022-07-23T01:54:01;95041.91;;;20.36;100.00
23164;BME280;31429;42.674;23.350;2022-07-23T01:55:02;95033.13;;;20.26;100.00
23164;BME280;31429;42.674;23.350;2022-07-23T01:56:03;95036.53;;;20.26;100.00
23164;BME280;31429;42.674;23.350;2022-07-23T01:57:04;95036.19;;;20.18;100.00
23164;BME280;31429;42.674;23.350;2022-07-23T01:58:05;95041.84;;;20.12;100.00
23164;BME280;31429;42.674;23.350;2022-07-23T01:59:06;95041.31;;;20.07;100.00
23164;BME280;31429;42.674;23.350;2022-07-23T02:00:08;95043.41;;;20.02;100.00
23164;BME280;31429;42.674;23.350;2022-07-23T02:01:09;95042.50;;;20.03;100.00
23164;BME280;31429;42.674;23.350;2022-07-23T02:02:09;95046.00;;;20.02;100.00
23164;BME280;31429;42.674;23.350;2022-07-23T02:03:10;95036.19;;;19.94;100.00
23164;BME280;31429;42.674;23.350;2022-07-23T02:04:11;95031.84;;;19.82;100.00
23164;BME280;31429;42.674;23.350;2022-07-23T02:05:11;95051.47;;;19.86;100.00
23164;BME280;31429;42.674;23.350;2022-07-23T02:06:12;95042.34;;;19.81;100.00
23164;BME280;31429;42.674;23.350;2022-07-23T02:07:13;95041.78;;;19.76;100.00
23164;BME280;31429;42.674;23.350;2022-07-23T02:08:14;95038.91;;;19.68;100.00
23164;BME280;31429;42.674;23.350;2022-07-23T02:09:17;95048.56;;;19.66;100.00
23164;BME280;31429;42.674;23.350;2022-07-23T02:10:18;95003.75;;;19.38;100.00
23164;BME280;31429;42.674;23.350;2022-07-23T02:11:18;95043.78;;;19.60;100.00
23164;BME280;31429;42.674;23.350;2022-07-23T02:12:19;95042.44;;;19.54;100.00
23164;BME280;31429;42.674;23.350;2022-07-23T02:13:20;95047.63;;;19.54;100.00
23164;BME280;31429;42.674;23.350;2022-07-23T02:14:20;95043.38;;;19.53;100.00
23164;BME280;31429;42.674;23.350;2022-07-23T02:15:21;94996.66;;;19.28;100.00
23164;BME280;31429;42.674;23.350;2022-07-23T02:16:22;95045.25;;;19.51;100.00
23164;BME280;31429;42.674;23.350;2022-07-23T02:17:22;95018.38;;;19.27;100.00
23164;BME280;31429;42.674;23.350;2022-07-23T02:18:23;95049.91;;;19.46;100.00
23164;BME280;31429;42.674;23.350;2022-07-23T02:19:24;95047.22;;;19.47;100.00
23164;BME280;31429;42.674;23.350;2022-07-23T02:20:25;95004.97;;;19.20;100.00
23164;BME280;31429;42.674;23.350;2022-07-23T02:21:26;95047.91;;;19.37;100.00
23164;BME280;31429;42.674;23.350;2022-07-23T02:22:26;95054.13;;;19.34;100.00
23164;BME280;31429;42.674;23.350;2022-07-23T02:23:27;95029.34;;;19.18;100.00
23164;BME280;31429;42.674;23.350;2022-07-23T02:24:29;95052.88;;;19.27;100.00
23164;BME280;31429;42.674;23.350;2022-07-23T02:25:30;95054.75;;;19.25;100.00
23164;BME280;31429;42.674;23.350;2022-07-23T02:26:30;95036.50;;;19.14;100.00
23164;BME280;31429;42.674;23.350;2022-07-23T02:27:35;95027.16;;;19.12;100.00
23164;BME280;31429;42.674;23.350;2022-07-23T02:28:36;95041.91;;;19.24;100.00
23164;BME280;31429;42.674;23.350;2022-07-23T02:29:36;95028.81;;;19.13;100.00
23164;BME280;31429;42.674;23.350;2022-07-23T02:30:37;95051.63;;;19.33;100.00
23164;BME280;31429;42.674;23.350;2022-07-23T02:31:39;95048.31;;;19.31;100.00
23164;BME280;31429;42.674;23.350;2022-07-23T02:32:39;95049.16;;;19.31;100.00
23164;BME280;31429;42.674;23.350;2022-07-23T02:33:41;95050.81;;;19.32;100.00
23164;BME280;31429;42.674;23.350;2022-07-23T02:34:41;95044.06;;;19.17;100.00
23164;BME280;31429;42.674;23.350;2022-07-23T02:35:42;95042.09;;;19.21;100.00
23164;BME280;31429;42.674;23.350;2022-07-23T02:36:43;95020.50;;;19.08;100.00
23164;BME280;31429;42.674;23.350;2022-07-23T02:37:44;95048.72;;;19.25;100.00
23164;BME280;31429;42.674;23.350;2022-07-23T02:38:44;95045.53;;;19.21;100.00
23164;BME280;31429;42.674;23.350;2022-07-23T02:39:46;95055.56;;;19.13;100.00
23164;BME280;31429;42.674;23.350;2022-07-23T02:40:48;95043.00;;;19.07;100.00
23164;BME280;31429;42.674;23.350;2022-07-23T02:41:49;95048.72;;;19.12;100.00
23164;BME280;31429;42.674;23.350;2022-07-23T02:42:49;95052.47;;;19.21;100.00
23164;BME280;31429;42.674;23.350;2022-07-23T02:43:50;95054.22;;;19.20;100.00
23164;BME280;31429;42.674;23.350;2022-07-23T02:44:51;95052.16;;;19.13;100.00
23164;BME280;31429;42.674;23.350;2022-07-23T02:45:52;95036.25;;;19.05;100.00
23164;BME280;31429;42.674;23.350;2022-07-23T02:46:53;95057.75;;;19.19;100.00
23164;BME280;31429;42.674;23.350;2022-07-23T02:47:53;95058.91;;;19.15;100.00
23164;BME280;31429;42.674;23.350;2022-07-23T02:48:54;95058.69;;;19.18;100.00
23164;BME280;31429;42.674;23.350;2022-07-23T02:49:55;95053.06;;;19.24;100.00
23164;BME280;31429;42.674;23.350;2022-07-23T02:50:56;95057.84;;;19.30;100.00
23164;BME280;31429;42.674;23.350;2022-07-23T02:51:56;95059.03;;;19.39;100.00
23164;BME280;31429;42.674;23.350;2022-07-23T02:52:57;95058.28;;;19.37;100.00
23164;BME280;31429;42.674;23.350;2022-07-23T02:53:58;95021.25;;;19.10;100.00
23164;BME280;31429;42.674;23.350;2022-07-23T02:55:00;95063.66;;;19.34;100.00
23164;BME280;31429;42.674;23.350;2022-07-23T02:56:00;95061.91;;;19.34;100.00
23164;BME280;31429;42.674;23.350;2022-07-23T02:57:01;95057.25;;;19.27;100.00
23164;BME280;31429;42.674;23.350;2022-07-23T02:58:02;95062.00;;;19.20;100.00
23164;BME280;31429;42.674;23.350;2022-07-23T02:59:02;95067.06;;;19.22;100.00
23164;BME280;31429;42.674;23.350;2022-07-23T03:00:05;95069.53;;;19.11;100.00
23164;BME280;31429;42.674;23.350;2022-07-23T03:01:06;95066.03;;;19.12;100.00
23164;BME280;31429;42.674;23.350;2022-07-23T03:02:07;95070.28;;;19.13;100.00
23164;BME280;31429;42.674;23.350;2022-07-23T03:03:07;95075.06;;;19.19;100.00
23164;BME280;31429;42.674;23.350;2022-07-23T03:04:08;95074.31;;;19.17;100.00
23164;BME280;31429;42.674;23.350;2022-07-23T03:05:09;95040.41;;;18.94;100.00
23164;BME280;31429;42.674;23.350;2022-07-23T03:06:10;95074.31;;;19.17;100.00
23164;BME280;31429;42.674;23.350;2022-07-23T03:07:11;95072.34;;;19.08;100.00
23164;BME280;31429;42.674;23.350;2022-07-23T03:08:11;95075.03;;;19.06;100.00
23164;BME280;31429;42.674;23.350;2022-07-23T03:09:12;95069.75;;;18.95;100.00
23164;BME280;31429;42.674;23.350;2022-07-23T03:10:14;95068.78;;;18.96;100.00
23164;BME280;31429;42.674;23.350;2022-07-23T03:11:15;95073.50;;;19.04;100.00
23164;BME280;31429;42.674;23.350;2022-07-23T03:12:15;95075.31;;;19.02;100.00
23164;BME280;31429;42.674;23.350;2022-07-23T03:13:16;95072.75;;;19.02;100.00
23164;BME280;31429;42.674;23.350;2022-07-23T03:14:17;95074.66;;;19.12;100.00
23164;BME280;31429;42.674;23.350;2022-07-23T03:15:18;95080.94;;;19.08;100.00
23164;BME280;31429;42.674;23.350;2022-07-23T03:16:18;95046.38;;;18.82;100.00
23164;BME280;31429;42.674;23.350;2022-07-23T03:17:19;95083.34;;;18.99;100.00
23164;BME280;31429;42.674;23.350;2022-07-23T03:18:20;95083.09;;;18.89;100.00
23164;BME280;31429;42.674;23.350;2022-07-23T03:19:20;95073.75;;;18.86;100.00
23164;BME280;31429;42.674;23.350;2022-07-23T03:20:21;95061.78;;;18.71;100.00
23164;BME280;31429;42.674;23.350;2022-07-23T03:21:22;95084.81;;;18.76;100.00
23164;BME280;31429;42.674;23.350;2022-07-23T03:22:22;95099.41;;;18.77;100.00
23164;BME280;31429;42.674;23.350;2022-07-23T03:23:23;95067.81;;;18.72;100.00
23164;BME280;31429;42.674;23.350;2022-07-23T03:24:24;95089.56;;;18.82;100.00
23164;BME280;31429;42.674;23.350;2022-07-23T03:25:46;95086.19;;;18.81;100.00
23164;BME280;31429;42.674;23.350;2022-07-23T03:26:49;95092.91;;;18.84;100.00
23164;BME280;31429;42.674;23.350;2022-07-23T03:27:50;95088.16;;;18.90;100.00
23164;BME280;31429;42.674;23.350;2022-07-23T03:28:51;95094.50;;;18.99;100.00
23164;BME280;31429;42.674;23.350;2022-07-23T03:29:54;95097.41;;;18.94;100.00
23164;BME280;31429;42.674;23.350;2022-07-23T03:30:54;95094.31;;;19.02;100.00
23164;BME280;31429;42.674;23.350;2022-07-23T03:31:55;95092.78;;;19.12;100.00
23164;BME280;31429;42.674;23.350;2022-07-23T03:32:56;95094.88;;;19.20;100.00
23164;BME280;31429;42.674;23.350;2022-07-23T03:33:56;95054.91;;;18.97;100.00
23164;BME280;31429;42.674;23.350;2022-07-23T03:34:57;95094.16;;;19.18;100.00
23164;BME280;31429;42.674;23.350;2022-07-23T03:35:58;95094.88;;;19.20;100.00
23164;BME280;31429;42.674;23.350;2022-07-23T03:36:59;95078.16;;;19.11;100.00
23164;BME280;31429;42.674;23.350;2022-07-23T03:37:59;95058.66;;;19.06;100.00
23164;BME280;31429;42.674;23.350;2022-07-23T03:39:00;95094.63;;;19.10;100.00
23164;BME280;31429;42.674;23.350;2022-07-23T03:40:01;95089.63;;;18.94;100.00
23164;BME280;31429;42.674;23.350;2022-07-23T03:41:04;95089.81;;;18.91;100.00
23164;BME280;31429;42.674;23.350;2022-07-23T03:42:04;95092.94;;;18.97;100.00
23164;BME280;31429;42.674;23.350;2022-07-23T03:43:06;95077.84;;;18.76;100.00
23164;BME280;31429;42.674;23.350;2022-07-23T03:44:06;95098.50;;;18.78;100.00
23164;BME280;31429;42.674;23.350;2022-07-23T03:45:08;95096.09;;;18.75;100.00
23164;BME280;31429;42.674;23.350;2022-07-23T03:46:09;95098.69;;;18.75;100.00
23164;BME280;31429;42.674;23.350;2022-07-23T03:47:10;95099.75;;;18.85;100.00
23164;BME280;31429;42.674;23.350;2022-07-23T03:48:10;95101.75;;;18.94;100.00
23164;BME280;31429;42.674;23.350;2022-07-23T03:49:11;95107.38;;;19.01;100.00
23164;BME280;31429;42.674;23.350;2022-07-23T03:50:12;95102.72;;;19.06;100.00
23164;BME280;31429;42.674;23.350;2022-07-23T03:51:12;95095.66;;;19.08;100.00
23164;BME280;31429;42.674;23.350;2022-07-23T03:52:13;95092.47;;;19.04;100.00
23164;BME280;31429;42.674;23.350;2022-07-23T03:53:14;95096.16;;;19.00;100.00
23164;BME280;31429;42.674;23.350;2022-07-23T03:54:14;95097.72;;;19.03;100.00
23164;BME280;31429;42.674;23.350;2022-07-23T03:55:15;95101.69;;;19.08;100.00
23164;BME280;31429;42.674;23.350;2022-07-23T03:56:17;95100.84;;;19.08;100.00
23164;BME280;31429;42.674;23.350;2022-07-23T03:57:18;95090.47;;;18.95;100.00
23164;BME280;31429;42.674;23.350;2022-07-23T03:58:19;95099.19;;;19.07;100.00
23164;BME280;31429;42.674;23.350;2022-07-23T03:59:19;95101.59;;;19.10;100.00
23164;BME280;31429;42.674;23.350;2022-07-23T04:00:20;95103.69;;;19.17;100.00
23164;BME280;31429;42.674;23.350;2022-07-23T04:01:20;95099.00;;;19.22;100.00
23164;BME280;31429;42.674;23.350;2022-07-23T04:02:21;95075.56;;;19.11;100.00
23164;BME280;31429;42.674;23.350;2022-07-23T04:03:22;95097.91;;;19.26;100.00
23164;BME280;31429;42.674;23.350;2022-07-23T04:04:22;95100.38;;;19.28;100.00
23164;BME280;31429;42.674;23.350;2022-07-23T04:05:23;95081.06;;;19.07;100.00
23164;BME280;31429;42.674;23.350;2022-07-23T04:06:24;95097.25;;;19.23;100.00
23164;BME280;31429;42.674;23.350;2022-07-23T04:07:24;95099.34;;;19.30;100.00
23164;BME280;31429;42.674;23.350;2022-07-23T04:08:25;95095.50;;;19.36;100.00
23164;BME280;31429;42.674;23.350;2022-07-23T04:09:26;95078.00;;;19.27;100.00
23164;BME280;31429;42.674;23.350;2022-07-23T04:10:27;95095.63;;;19.34;100.00
23164;BME280;31429;42.674;23.350;2022-07-23T04:11:29;95098.72;;;19.27;100.00
23164;BME280;31429;42.674;23.350;2022-07-23T04:12:29;95102.13;;;19.27;100.00
23164;BME280;31429;42.674;23.350;2022-07-23T04:13:30;95069.88;;;19.06;100.00
23164;BME280;31429;42.674;23.350;2022-07-23T04:14:32;95099.66;;;19.26;100.00
23164;BME280;31429;42.674;23.350;2022-07-23T04:15:33;95099.75;;;19.24;100.00
23164;BME280;31429;42.674;23.350;2022-07-23T04:16:34;95102.97;;;19.28;100.00
23164;BME280;31429;42.674;23.350;2022-07-23T04:17:35;95107.09;;;19.30;100.00
23164;BME280;31429;42.674;23.350;2022-07-23T04:18:35;95111.81;;;19.38;100.00
23164;BME280;31429;42.674;23.350;2022-07-23T04:19:36;95107.06;;;19.44;100.00
23164;BME280;31429;42.674;23.350;2022-07-23T04:20:40;94999.34;;;18.88;100.00
23164;BME280;31429;42.674;23.350;2022-07-23T04:21:40;95098.78;;;19.52;100.00
23164;BME280;31429;42.674;23.350;2022-07-23T04:22:41;95102.09;;;19.54;100.00
23164;BME280;31429;42.674;23.350;2022-07-23T04:23:42;95101.50;;;19.63;100.00
23164;BME280;31429;42.674;23.350;2022-07-23T04:24:42;95101.06;;;19.69;100.00
23164;BME280;31429;42.674;23.350;2022-07-23T04:25:43;95100.75;;;19.74;100.00
23164;BME280;31429;42.674;23.350;2022-07-23T04:26:45;95103.13;;;19.77;100.00
23164;BME280;31429;42.674;23.350;2022-07-23T04:27:46;95105.00;;;19.87;100.00
23164;BME280;31429;42.674;23.350;2022-07-23T04:28:49;95094.72;;;19.86;100.00
23164;BME280;31429;42.674;23.350;2022-07-23T04:29:50;95100.34;;;19.80;100.00
23164;BME280;31429;42.674;23.350;2022-07-23T04:30:52;95106.97;;;19.84;100.00
23164;BME280;31429;42.674;23.350;2022-07-23T04:31:53;95106.88;;;19.85;100.00
23164;BME280;31429;42.674;23.350;2022-07-23T04:32:53;95105.50;;;19.92;100.00
23164;BME280;31429;42.674;23.350;2022-07-23T04:33:54;95103.53;;;19.96;100.00
23164;BME280;31429;42.674;23.350;2022-07-23T04:34:55;95109.34;;;20.12;100.00
23164;BME280;31429;42.674;23.350;2022-07-23T04:35:55;95115.25;;;20.14;100.00
23164;BME280;31429;42.674;23.350;2022-07-23T04:36:56;95108.81;;;20.20;100.00
23164;BME280;31429;42.674;23.350;2022-07-23T04:37:57;95107.44;;;20.39;100.00
23164;BME280;31429;42.674;23.350;2022-07-23T04:38:57;95107.19;;;20.55;100.00
23164;BME280;31429;42.674;23.350;2022-07-23T04:39:58;95101.31;;;20.64;100.00
23164;BME280;31429;42.674;23.350;2022-07-23T04:40:59;95088.63;;;20.72;100.00
23164;BME280;31429;42.674;23.350;2022-07-23T04:42:02;95097.56;;;20.92;100.00
23164;BME280;31429;42.674;23.350;2022-07-23T04:43:02;95104.91;;;20.98;100.00
23164;BME280;31429;42.674;23.350;2022-07-23T04:44:03;95098.56;;;21.02;100.00
23164;BME280;31429;42.674;23.350;2022-07-23T04:45:05;95097.31;;;21.31;100.00
23164;BME280;31429;42.674;23.350;2022-07-23T04:46:06;95088.88;;;21.73;100.00
23164;BME280;31429;42.674;23.350;2022-07-23T04:47:06;95084.28;;;21.88;100.00
23164;BME280;31429;42.674;23.350;2022-07-23T04:48:07;95089.38;;;22.01;100.00
23164;BME280;31429;42.674;23.350;2022-07-23T04:49:07;95109.16;;;22.03;100.00
23164;BME280;31429;42.674;23.350;2022-07-23T04:50:08;95106.50;;;21.81;100.00
23164;BME280;31429;42.674;23.350;2022-07-23T04:51:09;95104.69;;;21.48;100.00
23164;BME280;31429;42.674;23.350;2022-07-23T04:52:10;95114.53;;;21.32;100.00
23164;BME280;31429;42.674;23.350;2022-07-23T04:53:11;95110.16;;;21.22;100.00
23164;BME280;31429;42.674;23.350;2022-07-23T04:54:11;95115.09;;;21.13;100.00
23164;BME280;31429;42.674;23.350;2022-07-23T04:55:12;95114.66;;;21.07;100.00
23164;BME280;31429;42.674;23.350;2022-07-23T04:56:13;95101.75;;;20.94;100.00
23164;BME280;31429;42.674;23.350;2022-07-23T04:57:15;95110.25;;;20.96;100.00
23164;BME280;31429;42.674;23.350;2022-07-23T04:58:16;95121.47;;;20.97;100.00
23164;BME280;31429;42.674;23.350;2022-07-23T04:59:16;95102.19;;;20.88;100.00
23164;BME280;31429;42.674;23.350;2022-07-23T05:00:17;95120.31;;;21.01;100.00
23164;BME280;31429;42.674;23.350;2022-07-23T05:01:17;95112.41;;;21.02;100.00
23164;BME280;31429;42.674;23.350;2022-07-23T05:02:18;95122.53;;;21.18;100.00
23164;BME280;31429;42.674;23.350;2022-07-23T05:03:19;95113.91;;;21.17;100.00
23164;BME280;31429;42.674;23.350;2022-07-23T05:04:19;95093.38;;;21.02;100.00
23164;BME280;31429;42.674;23.350;2022-07-23T05:05:20;95095.97;;;21.02;100.00
23164;BME280;31429;42.674;23.350;2022-07-23T05:06:21;95120.28;;;21.13;100.00
23164;BME280;31429;42.674;23.350;2022-07-23T05:07:22;95115.91;;;21.14;100.00
23164;BME280;31429;42.674;23.350;2022-07-23T05:08:22;95102.44;;;20.96;100.00
23164;BME280;31429;42.674;23.350;2022-07-23T05:09:23;95114.47;;;21.10;100.00
23164;BME280;31429;42.674;23.350;2022-07-23T05:10:24;95112.13;;;21.18;100.00
23164;BME280;31429;42.674;23.350;2022-07-23T05:11:24;95116.53;;;21.29;100.00
23164;BME280;31429;42.674;23.350;2022-07-23T05:12:26;95115.47;;;21.77;100.00
23164;BME280;31429;42.674;23.350;2022-07-23T05:13:27;95122.16;;;22.25;100.00
23164;BME280;31429;42.674;23.350;2022-07-23T05:14:28;95124.53;;;22.40;100.00
23164;BME280;31429;42.674;23.350;2022-07-23T05:15:28;95114.34;;;22.59;100.00